sensor_id;sensor_type;location;lat;lon;timestamp;temperature;humidity
24430;DHT22;12613;47.408;8.412;2023-09-19T00:00:50;19.90;89.40
24430;DHT22;12613;47.408;8.412;2023-09-19T00:03:29;19.90;89.70
24430;DHT22;12613;47.408;8.412;2023-09-19T00:05:58;19.90;89.70
24430;DHT22;12613;47.408;8.412;2023-09-19T00:08:27;19.80;89.90
24430;DHT22;12613;47.408;8.412;2023-09-19T00:10:56;19.70;89.80
24430;DHT22;12613;47.408;8.412;2023-09-19T00:13:32;19.70;90.00
24430;DHT22;12613;47.408;8.412;2023-09-19T00:16:10;19.70;90.40
24430;DHT22;12613;47.408;8.412;2023-09-19T00:18:38;19.70;90.40
24430;DHT22;12613;47.408;8.412;2023-09-19T00:21:07;19.70;90.30
24430;DHT22;12613;47.408;8.412;2023-09-19T00:23:37;19.70;90.30
24430;DHT22;12613;47.408;8.412;2023-09-19T00:26:05;19.70;90.40
24430;DHT22;12613;47.408;8.412;2023-09-19T00:28:33;19.60;90.40
24430;DHT22;12613;47.408;8.412;2023-09-19T00:31:01;19.70;90.50
24430;DHT22;12613;47.408;8.412;2023-09-19T00:33:30;19.60;90.40
24430;DHT22;12613;47.408;8.412;2023-09-19T00:35:58;19.60;90.50
24430;DHT22;12613;47.408;8.412;2023-09-19T00:38:29;19.60;90.60
24430;DHT22;12613;47.408;8.412;2023-09-19T00:40:58;19.60;90.70
24430;DHT22;12613;47.408;8.412;2023-09-19T00:43:27;19.60;90.90
24430;DHT22;12613;47.408;8.412;2023-09-19T00:45:57;19.60;90.90
24430;DHT22;12613;47.408;8.412;2023-09-19T00:48:28;19.60;91.00
24430;DHT22;12613;47.408;8.412;2023-09-19T00:51:05;19.60;90.90
24430;DHT22;12613;47.408;8.412;2023-09-19T00:53:33;19.60;91.10
24430;DHT22;12613;47.408;8.412;2023-09-19T00:56:03;19.60;91.20
24430;DHT22;12613;47.408;8.412;2023-09-19T00:58:35;19.50;91.00
24430;DHT22;12613;47.408;8.412;2023-09-19T01:01:04;19.50;91.20
24430;DHT22;12613;47.408;8.412;2023-09-19T01:03:39;19.50;91.10
24430;DHT22;12613;47.408;8.412;2023-09-19T01:06:07;19.60;91.30
24430;DHT22;12613;47.408;8.412;2023-09-19T01:08:35;19.60;91.30
24430;DHT22;12613;47.408;8.412;2023-09-19T01:11:21;19.50;91.10
24430;DHT22;12613;47.408;8.412;2023-09-19T01:17:22;19.50;91.20
24430;DHT22;12613;47.408;8.412;2023-09-19T01:28:06;19.60;91.20
24430;DHT22;12613;47.408;8.412;2023-09-19T01:30:43;19.60;91.10
24430;DHT22;12613;47.408;8.412;2023-09-19T01:33:12;19.50;91.10
24430;DHT22;12613;47.408;8.412;2023-09-19T01:35:40;19.60;90.90
24430;DHT22;12613;47.408;8.412;2023-09-19T01:38:08;19.50;91.00
24430;DHT22;12613;47.408;8.412;2023-09-19T01:41:03;19.60;91.10
24430;DHT22;12613;47.408;8.412;2023-09-19T01:43:41;19.60;91.00
24430;DHT22;12613;47.408;8.412;2023-09-19T01:52:03;19.50;90.70
24430;DHT22;12613;47.408;8.412;2023-09-19T01:54:40;19.50;90.70
24430;DHT22;12613;47.408;8.412;2023-09-19T01:59:48;19.50;90.50
24430;DHT22;12613;47.408;8.412;2023-09-19T02:02:19;19.50;90.70
24430;DHT22;12613;47.408;8.412;2023-09-19T02:04:49;19.50;90.70
24430;DHT22;12613;47.408;8.412;2023-09-19T02:07:17;19.50;90.60
24430;DHT22;12613;47.408;8.412;2023-09-19T02:09:44;19.50;90.70
24430;DHT22;12613;47.408;8.412;2023-09-19T02:12:14;19.50;90.50
24430;DHT22;12613;47.408;8.412;2023-09-19T02:14:42;19.60;90.30
24430;DHT22;12613;47.408;8.412;2023-09-19T02:17:11;19.50;90.50
24430;DHT22;12613;47.408;8.412;2023-09-19T02:19:40;19.50;90.40
24430;DHT22;12613;47.408;8.412;2023-09-19T02:22:08;19.50;90.40
24430;DHT22;12613;47.408;8.412;2023-09-19T02:24:37;19.50;90.40
24430;DHT22;12613;47.408;8.412;2023-09-19T02:27:06;19.50;90.40
24430;DHT22;12613;47.408;8.412;2023-09-19T02:29:34;19.40;90.30
24430;DHT22;12613;47.408;8.412;2023-09-19T02:32:02;19.50;90.50
24430;DHT22;12613;47.408;8.412;2023-09-19T02:34:31;19.40;90.30
24430;DHT22;12613;47.408;8.412;2023-09-19T02:36:59;19.40;90.10
24430;DHT22;12613;47.408;8.412;2023-09-19T02:39:28;19.50;90.10
24430;DHT22;12613;47.408;8.412;2023-09-19T02:41:55;19.40;90.10
24430;DHT22;12613;47.408;8.412;2023-09-19T02:44:23;19.40;90.10
24430;DHT22;12613;47.408;8.412;2023-09-19T02:46:52;19.40;90.10
24430;DHT22;12613;47.408;8.412;2023-09-19T02:49:20;19.40;90.10
24430;DHT22;12613;47.408;8.412;2023-09-19T02:51:49;19.40;90.10
24430;DHT22;12613;47.408;8.412;2023-09-19T02:54:18;19.40;90.10
24430;DHT22;12613;47.408;8.412;2023-09-19T02:56:48;19.30;90.00
24430;DHT22;12613;47.408;8.412;2023-09-19T02:59:17;19.30;90.00
24430;DHT22;12613;47.408;8.412;2023-09-19T03:01:45;19.30;90.00
24430;DHT22;12613;47.408;8.412;2023-09-19T03:04:14;19.30;90.10
24430;DHT22;12613;47.408;8.412;2023-09-19T03:06:47;19.30;90.20
24430;DHT22;12613;47.408;8.412;2023-09-19T03:09:17;19.30;90.10
24430;DHT22;12613;47.408;8.412;2023-09-19T03:11:46;19.30;90.20
24430;DHT22;12613;47.408;8.412;2023-09-19T03:14:18;19.30;90.20
24430;DHT22;12613;47.408;8.412;2023-09-19T03:16:47;19.40;90.30
24430;DHT22;12613;47.408;8.412;2023-09-19T03:19:16;19.30;90.00
24430;DHT22;12613;47.408;8.412;2023-09-19T03:21:44;19.40;90.20
24430;DHT22;12613;47.408;8.412;2023-09-19T03:24:13;19.40;90.00
24430;DHT22;12613;47.408;8.412;2023-09-19T03:26:41;19.30;90.00
24430;DHT22;12613;47.408;8.412;2023-09-19T03:29:08;19.30;90.00
24430;DHT22;12613;47.408;8.412;2023-09-19T03:31:35;19.30;90.00
24430;DHT22;12613;47.408;8.412;2023-09-19T03:34:03;19.30;89.70
24430;DHT22;12613;47.408;8.412;2023-09-19T03:36:31;19.30;89.50
24430;DHT22;12613;47.408;8.412;2023-09-19T03:38:59;19.30;89.90
24430;DHT22;12613;47.408;8.412;2023-09-19T03:41:26;19.30;89.80
24430;DHT22;12613;47.408;8.412;2023-09-19T03:43:54;19.30;89.90
24430;DHT22;12613;47.408;8.412;2023-09-19T03:46:22;19.40;89.70
24430;DHT22;12613;47.408;8.412;2023-09-19T03:48:50;19.30;89.40
24430;DHT22;12613;47.408;8.412;2023-09-19T03:51:18;19.40;89.50
24430;DHT22;12613;47.408;8.412;2023-09-19T03:53:46;19.40;89.00
24430;DHT22;12613;47.408;8.412;2023-09-19T03:56:16;19.30;89.10
24430;DHT22;12613;47.408;8.412;2023-09-19T03:58:45;19.30;89.00
24430;DHT22;12613;47.408;8.412;2023-09-19T04:01:16;19.30;89.30
24430;DHT22;12613;47.408;8.412;2023-09-19T04:03:45;19.30;88.90
24430;DHT22;12613;47.408;8.412;2023-09-19T04:06:17;19.30;88.60
24430;DHT22;12613;47.408;8.412;2023-09-19T04:08:44;19.20;88.90
24430;DHT22;12613;47.408;8.412;2023-09-19T04:11:14;19.20;88.70
24430;DHT22;12613;47.408;8.412;2023-09-19T04:13:43;19.20;89.00
24430;DHT22;12613;47.408;8.412;2023-09-19T04:16:12;19.10;88.90
24430;DHT22;12613;47.408;8.412;2023-09-19T04:18:39;19.10;88.90
24430;DHT22;12613;47.408;8.412;2023-09-19T04:21:10;19.10;89.10
24430;DHT22;12613;47.408;8.412;2023-09-19T04:23:37;19.10;88.90
24430;DHT22;12613;47.408;8.412;2023-09-19T04:26:10;19.00;89.10
24430;DHT22;12613;47.408;8.412;2023-09-19T04:28:38;19.00;89.30
24430;DHT22;12613;47.408;8.412;2023-09-19T04:31:06;19.00;89.20
24430;DHT22;12613;47.408;8.412;2023-09-19T04:33:33;19.00;89.10
24430;DHT22;12613;47.408;8.412;2023-09-19T04:36:02;18.90;89.20
24430;DHT22;12613;47.408;8.412;2023-09-19T04:38:34;18.90;89.40
24430;DHT22;12613;47.408;8.412;2023-09-19T04:41:02;18.90;89.40
24430;DHT22;12613;47.408;8.412;2023-09-19T04:43:29;18.90;89.70
24430;DHT22;12613;47.408;8.412;2023-09-19T04:45:57;18.90;89.70
24430;DHT22;12613;47.408;8.412;2023-09-19T04:48:27;18.90;89.60
24430;DHT22;12613;47.408;8.412;2023-09-19T04:51:01;18.90;89.60
24430;DHT22;12613;47.408;8.412;2023-09-19T04:53:29;18.90;89.60
24430;DHT22;12613;47.408;8.412;2023-09-19T04:55:57;18.90;89.80
24430;DHT22;12613;47.408;8.412;2023-09-19T04:58:24;18.90;89.80
24430;DHT22;12613;47.408;8.412;2023-09-19T05:00:53;18.90;89.70
24430;DHT22;12613;47.408;8.412;2023-09-19T05:03:20;18.80;89.90
24430;DHT22;12613;47.408;8.412;2023-09-19T05:05:49;18.90;90.00
24430;DHT22;12613;47.408;8.412;2023-09-19T05:08:16;18.80;90.10
24430;DHT22;12613;47.408;8.412;2023-09-19T05:10:44;18.80;90.20
24430;DHT22;12613;47.408;8.412;2023-09-19T05:13:12;18.80;90.20
24430;DHT22;12613;47.408;8.412;2023-09-19T05:15:40;18.80;90.40
24430;DHT22;12613;47.408;8.412;2023-09-19T05:18:08;18.80;90.40
24430;DHT22;12613;47.408;8.412;2023-09-19T05:20:37;18.80;90.30
24430;DHT22;12613;47.408;8.412;2023-09-19T05:23:07;18.80;90.40
24430;DHT22;12613;47.408;8.412;2023-09-19T05:25:36;18.70;90.50
24430;DHT22;12613;47.408;8.412;2023-09-19T05:28:05;18.70;90.60
24430;DHT22;12613;47.408;8.412;2023-09-19T05:30:33;18.70;90.60
24430;DHT22;12613;47.408;8.412;2023-09-19T05:33:00;18.70;90.60
24430;DHT22;12613;47.408;8.412;2023-09-19T05:35:29;18.70;90.70
24430;DHT22;12613;47.408;8.412;2023-09-19T05:37:57;18.70;90.80
24430;DHT22;12613;47.408;8.412;2023-09-19T05:40:26;18.70;90.80
24430;DHT22;12613;47.408;8.412;2023-09-19T05:42:54;18.60;90.90
24430;DHT22;12613;47.408;8.412;2023-09-19T05:45:22;18.60;90.90
24430;DHT22;12613;47.408;8.412;2023-09-19T05:47:50;18.70;91.10
24430;DHT22;12613;47.408;8.412;2023-09-19T05:50:19;18.60;91.20
24430;DHT22;12613;47.408;8.412;2023-09-19T05:52:56;18.60;91.30
24430;DHT22;12613;47.408;8.412;2023-09-19T05:55:29;18.60;91.40
24430;DHT22;12613;47.408;8.412;2023-09-19T05:57:56;18.60;91.30
24430;DHT22;12613;47.408;8.412;2023-09-19T06:00:25;18.60;91.50
24430;DHT22;12613;47.408;8.412;2023-09-19T06:02:59;18.50;91.50
24430;DHT22;12613;47.408;8.412;2023-09-19T06:05:27;18.50;91.60
24430;DHT22;12613;47.408;8.412;2023-09-19T06:07:55;18.50;91.80
24430;DHT22;12613;47.408;8.412;2023-09-19T06:10:26;18.50;91.90
24430;DHT22;12613;47.408;8.412;2023-09-19T06:12:55;18.50;91.90
24430;DHT22;12613;47.408;8.412;2023-09-19T06:15:24;18.60;92.00
24430;DHT22;12613;47.408;8.412;2023-09-19T06:17:55;18.50;92.20
24430;DHT22;12613;47.408;8.412;2023-09-19T06:20:28;18.50;92.20
24430;DHT22;12613;47.408;8.412;2023-09-19T06:22:56;18.50;92.20
24430;DHT22;12613;47.408;8.412;2023-09-19T06:25:24;18.60;92.40
24430;DHT22;12613;47.408;8.412;2023-09-19T06:27:52;18.60;92.40
24430;DHT22;12613;47.408;8.412;2023-09-19T06:30:24;18.60;92.40
24430;DHT22;12613;47.408;8.412;2023-09-19T06:32:59;18.60;92.40
24430;DHT22;12613;47.408;8.412;2023-09-19T06:35:32;18.60;92.40
24430;DHT22;12613;47.408;8.412;2023-09-19T06:38:03;18.60;92.50
24430;DHT22;12613;47.408;8.412;2023-09-19T06:40:33;18.60;92.50
24430;DHT22;12613;47.408;8.412;2023-09-19T06:43:02;18.70;92.60
24430;DHT22;12613;47.408;8.412;2023-09-19T06:45:31;18.70;92.50
24430;DHT22;12613;47.408;8.412;2023-09-19T06:47:59;18.70;92.60
24430;DHT22;12613;47.408;8.412;2023-09-19T06:50:27;18.70;92.50
24430;DHT22;12613;47.408;8.412;2023-09-19T06:52:57;18.70;92.40
24430;DHT22;12613;47.408;8.412;2023-09-19T06:55:27;18.70;92.60
24430;DHT22;12613;47.408;8.412;2023-09-19T06:57:57;18.70;92.70
24430;DHT22;12613;47.408;8.412;2023-09-19T07:00:25;18.70;92.70
24430;DHT22;12613;47.408;8.412;2023-09-19T07:02:58;18.70;92.70
24430;DHT22;12613;47.408;8.412;2023-09-19T07:05:27;18.70;92.70
24430;DHT22;12613;47.408;8.412;2023-09-19T07:07:56;18.70;92.60
24430;DHT22;12613;47.408;8.412;2023-09-19T07:10:27;18.70;92.80
24430;DHT22;12613;47.408;8.412;2023-09-19T07:13:04;18.70;92.90
24430;DHT22;12613;47.408;8.412;2023-09-19T07:15:37;18.70;92.90
24430;DHT22;12613;47.408;8.412;2023-09-19T07:18:13;18.70;92.90
24430;DHT22;12613;47.408;8.412;2023-09-19T07:20:46;18.70;93.00
24430;DHT22;12613;47.408;8.412;2023-09-19T07:23:20;18.70;92.90
24430;DHT22;12613;47.408;8.412;2023-09-19T07:25:50;18.70;93.00
24430;DHT22;12613;47.408;8.412;2023-09-19T07:28:19;18.70;93.00
24430;DHT22;12613;47.408;8.412;2023-09-19T07:30:47;18.70;93.10
24430;DHT22;12613;47.408;8.412;2023-09-19T07:33:16;18.70;93.10
24430;DHT22;12613;47.408;8.412;2023-09-19T07:35:47;18.70;93.00
24430;DHT22;12613;47.408;8.412;2023-09-19T07:38:15;18.70;93.20
24430;DHT22;12613;47.408;8.412;2023-09-19T07:40:43;18.70;93.10
24430;DHT22;12613;47.408;8.412;2023-09-19T07:43:11;18.70;93.20
24430;DHT22;12613;47.408;8.412;2023-09-19T07:45:39;18.80;93.00
24430;DHT22;12613;47.408;8.412;2023-09-19T07:48:15;18.80;93.10
24430;DHT22;12613;47.408;8.412;2023-09-19T07:50:43;18.80;93.00
24430;DHT22;12613;47.408;8.412;2023-09-19T07:53:11;18.80;93.00
24430;DHT22;12613;47.408;8.412;2023-09-19T07:55:44;18.70;93.10
24430;DHT22;12613;47.408;8.412;2023-09-19T07:58:15;18.70;93.00
24430;DHT22;12613;47.408;8.412;2023-09-19T08:00:44;18.70;93.20
24430;DHT22;12613;47.408;8.412;2023-09-19T08:03:11;18.80;93.20
24430;DHT22;12613;47.408;8.412;2023-09-19T08:05:41;18.70;93.00
24430;DHT22;12613;47.408;8.412;2023-09-19T08:08:09;18.70;93.00
24430;DHT22;12613;47.408;8.412;2023-09-19T08:10:37;18.70;93.10
24430;DHT22;12613;47.408;8.412;2023-09-19T08:13:06;18.70;93.10
24430;DHT22;12613;47.408;8.412;2023-09-19T08:15:44;18.70;93.20
24430;DHT22;12613;47.408;8.412;2023-09-19T08:18:12;18.80;93.20
24430;DHT22;12613;47.408;8.412;2023-09-19T08:20:39;18.80;93.30
24430;DHT22;12613;47.408;8.412;2023-09-19T08:23:09;18.80;93.30
24430;DHT22;12613;47.408;8.412;2023-09-19T08:25:38;18.80;93.50
24430;DHT22;12613;47.408;8.412;2023-09-19T08:28:07;18.90;93.40
24430;DHT22;12613;47.408;8.412;2023-09-19T08:30:40;18.90;93.30
24430;DHT22;12613;47.408;8.412;2023-09-19T08:33:09;18.90;93.50
24430;DHT22;12613;47.408;8.412;2023-09-19T08:35:37;19.00;93.40
24430;DHT22;12613;47.408;8.412;2023-09-19T08:38:06;19.00;93.50
24430;DHT22;12613;47.408;8.412;2023-09-19T08:40:38;19.00;93.30
24430;DHT22;12613;47.408;8.412;2023-09-19T08:43:06;19.10;93.50
24430;DHT22;12613;47.408;8.412;2023-09-19T08:45:39;19.10;93.30
24430;DHT22;12613;47.408;8.412;2023-09-19T08:56:31;19.10;93.30
24430;DHT22;12613;47.408;8.412;2023-09-19T08:59:05;19.10;93.00
24430;DHT22;12613;47.408;8.412;2023-09-19T09:01:39;19.10;93.00
24430;DHT22;12613;47.408;8.412;2023-09-19T09:04:10;19.20;93.10
24430;DHT22;12613;47.408;8.412;2023-09-19T09:06:39;19.20;93.10
24430;DHT22;12613;47.408;8.412;2023-09-19T09:09:09;19.20;93.40
24430;DHT22;12613;47.408;8.412;2023-09-19T09:11:37;19.20;93.00
24430;DHT22;12613;47.408;8.412;2023-09-19T09:14:07;19.20;93.00
24430;DHT22;12613;47.408;8.412;2023-09-19T09:16:34;19.30;93.20
24430;DHT22;12613;47.408;8.412;2023-09-19T09:19:01;19.30;93.20
24430;DHT22;12613;47.408;8.412;2023-09-19T09:21:29;19.40;93.00
24430;DHT22;12613;47.408;8.412;2023-09-19T09:23:57;19.40;93.00
24430;DHT22;12613;47.408;8.412;2023-09-19T09:26:43;19.40;92.80
24430;DHT22;12613;47.408;8.412;2023-09-19T09:29:12;19.40;92.70
24430;DHT22;12613;47.408;8.412;2023-09-19T09:31:40;19.50;92.90
24430;DHT22;12613;47.408;8.412;2023-09-19T09:34:10;19.50;93.00
24430;DHT22;12613;47.408;8.412;2023-09-19T09:36:40;19.50;92.70
24430;DHT22;12613;47.408;8.412;2023-09-19T09:39:11;19.60;92.70
24430;DHT22;12613;47.408;8.412;2023-09-19T09:41:44;19.70;92.90
24430;DHT22;12613;47.408;8.412;2023-09-19T09:44:16;19.80;93.00
24430;DHT22;12613;47.408;8.412;2023-09-19T09:46:47;19.90;92.80
24430;DHT22;12613;47.408;8.412;2023-09-19T09:49:25;19.90;92.00
24430;DHT22;12613;47.408;8.412;2023-09-19T09:52:07;19.90;91.90
24430;DHT22;12613;47.408;8.412;2023-09-19T09:55:03;19.90;91.90
24430;DHT22;12613;47.408;8.412;2023-09-19T09:57:34;20.00;92.10
24430;DHT22;12613;47.408;8.412;2023-09-19T10:00:03;20.00;91.60
24430;DHT22;12613;47.408;8.412;2023-09-19T10:02:51;20.00;91.60
24430;DHT22;12613;47.408;8.412;2023-09-19T10:05:20;20.00;91.60
24430;DHT22;12613;47.408;8.412;2023-09-19T10:07:51;20.10;91.30
24430;DHT22;12613;47.408;8.412;2023-09-19T10:10:41;20.10;91.40
24430;DHT22;12613;47.408;8.412;2023-09-19T10:13:10;20.20;91.60
24430;DHT22;12613;47.408;8.412;2023-09-19T10:15:49;20.30;91.60
24430;DHT22;12613;47.408;8.412;2023-09-19T10:18:23;20.40;91.70
24430;DHT22;12613;47.408;8.412;2023-09-19T10:20:52;20.50;91.40
24430;DHT22;12613;47.408;8.412;2023-09-19T10:23:21;20.60;91.00
24430;DHT22;12613;47.408;8.412;2023-09-19T10:25:53;20.60;90.60
24430;DHT22;12613;47.408;8.412;2023-09-19T10:28:21;20.50;90.80
24430;DHT22;12613;47.408;8.412;2023-09-19T10:30:50;20.60;90.80
24430;DHT22;12613;47.408;8.412;2023-09-19T10:33:20;20.60;90.70
24430;DHT22;12613;47.408;8.412;2023-09-19T10:35:52;20.60;90.30
24430;DHT22;12613;47.408;8.412;2023-09-19T10:38:27;20.70;90.80
24430;DHT22;12613;47.408;8.412;2023-09-19T10:40:56;20.80;90.80
24430;DHT22;12613;47.408;8.412;2023-09-19T10:43:30;20.90;90.80
24430;DHT22;12613;47.408;8.412;2023-09-19T10:46:07;21.10;90.50
24430;DHT22;12613;47.408;8.412;2023-09-19T10:48:40;21.10;90.20
24430;DHT22;12613;47.408;8.412;2023-09-19T10:51:11;21.10;90.00
24430;DHT22;12613;47.408;8.412;2023-09-19T10:54:23;21.10;89.50
24430;DHT22;12613;47.408;8.412;2023-09-19T10:56:53;21.10;89.30
24430;DHT22;12613;47.408;8.412;2023-09-19T10:59:21;21.00;88.50
24430;DHT22;12613;47.408;8.412;2023-09-19T11:01:52;21.00;88.80
24430;DHT22;12613;47.408;8.412;2023-09-19T11:04:36;21.00;88.40
24430;DHT22;12613;47.408;8.412;2023-09-19T11:09:45;21.10;88.20
24430;DHT22;12613;47.408;8.412;2023-09-19T11:15:08;21.20;88.60
24430;DHT22;12613;47.408;8.412;2023-09-19T11:17:38;21.30;88.50
24430;DHT22;12613;47.408;8.412;2023-09-19T11:30:52;21.60;88.00
24430;DHT22;12613;47.408;8.412;2023-09-19T11:33:31;21.70;88.10
24430;DHT22;12613;47.408;8.412;2023-09-19T11:46:34;21.90;84.60
24430;DHT22;12613;47.408;8.412;2023-09-19T11:49:09;21.80;85.40
24430;DHT22;12613;47.408;8.412;2023-09-19T11:51:43;21.90;85.00
24430;DHT22;12613;47.408;8.412;2023-09-19T11:54:15;22.00;86.20
24430;DHT22;12613;47.408;8.412;2023-09-19T11:56:48;22.00;85.50
24430;DHT22;12613;47.408;8.412;2023-09-19T11:59:30;22.10;85.00
24430;DHT22;12613;47.408;8.412;2023-09-19T12:02:04;22.10;84.80
24430;DHT22;12613;47.408;8.412;2023-09-19T12:04:40;22.20;84.30
24430;DHT22;12613;47.408;8.412;2023-09-19T12:07:16;22.20;84.50
24430;DHT22;12613;47.408;8.412;2023-09-19T12:10:03;22.30;84.20
24430;DHT22;12613;47.408;8.412;2023-09-19T12:12:31;22.30;84.40
24430;DHT22;12613;47.408;8.412;2023-09-19T12:15:01;22.40;84.40
24430;DHT22;12613;47.408;8.412;2023-09-19T12:17:40;22.50;84.00
24430;DHT22;12613;47.408;8.412;2023-09-19T12:20:10;22.60;83.80
24430;DHT22;12613;47.408;8.412;2023-09-19T12:22:40;22.60;83.90
24430;DHT22;12613;47.408;8.412;2023-09-19T12:25:10;22.70;84.40
24430;DHT22;12613;47.408;8.412;2023-09-19T12:27:46;22.80;83.50
24430;DHT22;12613;47.408;8.412;2023-09-19T12:30:16;22.90;82.80
24430;DHT22;12613;47.408;8.412;2023-09-19T12:32:46;22.80;83.10
24430;DHT22;12613;47.408;8.412;2023-09-19T12:35:33;22.90;82.50
24430;DHT22;12613;47.408;8.412;2023-09-19T12:38:04;23.00;83.20
24430;DHT22;12613;47.408;8.412;2023-09-19T12:40:32;23.10;82.60
24430;DHT22;12613;47.408;8.412;2023-09-19T12:43:03;23.20;82.90
24430;DHT22;12613;47.408;8.412;2023-09-19T12:45:32;23.30;81.70
24430;DHT22;12613;47.408;8.412;2023-09-19T12:48:24;23.50;82.10
24430;DHT22;12613;47.408;8.412;2023-09-19T12:51:12;23.70;81.50
24430;DHT22;12613;47.408;8.412;2023-09-19T12:53:46;23.80;80.20
24430;DHT22;12613;47.408;8.412;2023-09-19T12:56:18;23.90;79.30
24430;DHT22;12613;47.408;8.412;2023-09-19T12:58:55;23.90;76.70
24430;DHT22;12613;47.408;8.412;2023-09-19T13:01:27;23.80;77.40
24430;DHT22;12613;47.408;8.412;2023-09-19T13:04:31;23.80;77.40
24430;DHT22;12613;47.408;8.412;2023-09-19T13:07:00;23.80;76.90
24430;DHT22;12613;47.408;8.412;2023-09-19T13:09:28;23.80;75.80
24430;DHT22;12613;47.408;8.412;2023-09-19T13:12:01;23.80;74.80
24430;DHT22;12613;47.408;8.412;2023-09-19T13:14:29;23.80;74.80
24430;DHT22;12613;47.408;8.412;2023-09-19T13:17:07;23.80;75.60
24430;DHT22;12613;47.408;8.412;2023-09-19T13:19:50;24.00;74.90
24430;DHT22;12613;47.408;8.412;2023-09-19T13:22:43;24.00;74.60
24430;DHT22;12613;47.408;8.412;2023-09-19T13:25:21;24.10;74.80
24430;DHT22;12613;47.408;8.412;2023-09-19T13:27:52;24.00;72.90
24430;DHT22;12613;47.408;8.412;2023-09-19T13:30:20;24.00;73.60
24430;DHT22;12613;47.408;8.412;2023-09-19T13:32:48;24.00;73.10
24430;DHT22;12613;47.408;8.412;2023-09-19T13:35:17;24.00;72.20
24430;DHT22;12613;47.408;8.412;2023-09-19T13:37:47;24.00;71.60
24430;DHT22;12613;47.408;8.412;2023-09-19T13:40:16;24.00;71.90
24430;DHT22;12613;47.408;8.412;2023-09-19T13:42:43;23.90;72.20
24430;DHT22;12613;47.408;8.412;2023-09-19T13:45:12;24.00;72.60
24430;DHT22;12613;47.408;8.412;2023-09-19T13:47:42;24.20;71.90
24430;DHT22;12613;47.408;8.412;2023-09-19T13:50:10;24.30;71.00
24430;DHT22;12613;47.408;8.412;2023-09-19T13:52:39;24.40;69.10
24430;DHT22;12613;47.408;8.412;2023-09-19T13:55:08;24.40;68.20
24430;DHT22;12613;47.408;8.412;2023-09-19T13:57:36;24.40;69.50
24430;DHT22;12613;47.408;8.412;2023-09-19T14:00:04;24.50;69.00
24430;DHT22;12613;47.408;8.412;2023-09-19T14:02:37;24.60;68.20
24430;DHT22;12613;47.408;8.412;2023-09-19T14:05:06;24.70;68.00
24430;DHT22;12613;47.408;8.412;2023-09-19T14:07:34;24.80;66.70
24430;DHT22;12613;47.408;8.412;2023-09-19T14:10:02;24.90;67.20
24430;DHT22;12613;47.408;8.412;2023-09-19T14:12:32;25.10;68.30
24430;DHT22;12613;47.408;8.412;2023-09-19T14:15:01;25.40;66.80
24430;DHT22;12613;47.408;8.412;2023-09-19T14:17:30;25.40;66.60
24430;DHT22;12613;47.408;8.412;2023-09-19T14:19:58;25.60;66.70
24430;DHT22;12613;47.408;8.412;2023-09-19T14:22:26;25.80;66.40
24430;DHT22;12613;47.408;8.412;2023-09-19T14:24:55;26.00;66.40
24430;DHT22;12613;47.408;8.412;2023-09-19T14:27:23;26.10;66.20
24430;DHT22;12613;47.408;8.412;2023-09-19T14:29:51;26.20;65.20
24430;DHT22;12613;47.408;8.412;2023-09-19T14:32:20;26.30;63.60
24430;DHT22;12613;47.408;8.412;2023-09-19T14:34:47;26.30;64.50
24430;DHT22;12613;47.408;8.412;2023-09-19T14:37:16;26.40;64.50
24430;DHT22;12613;47.408;8.412;2023-09-19T14:39:44;26.60;64.70
24430;DHT22;12613;47.408;8.412;2023-09-19T14:42:13;26.80;63.80
24430;DHT22;12613;47.408;8.412;2023-09-19T14:44:44;27.00;63.70
24430;DHT22;12613;47.408;8.412;2023-09-19T14:47:15;27.20;62.60
24430;DHT22;12613;47.408;8.412;2023-09-19T14:49:43;27.40;61.40
24430;DHT22;12613;47.408;8.412;2023-09-19T14:52:12;27.50;60.90
24430;DHT22;12613;47.408;8.412;2023-09-19T14:54:42;27.60;60.00
24430;DHT22;12613;47.408;8.412;2023-09-19T14:57:09;27.80;58.50
24430;DHT22;12613;47.408;8.412;2023-09-19T14:59:38;27.90;58.40
24430;DHT22;12613;47.408;8.412;2023-09-19T15:02:06;28.00;58.90
24430;DHT22;12613;47.408;8.412;2023-09-19T15:04:34;28.20;57.40
24430;DHT22;12613;47.408;8.412;2023-09-19T15:07:01;28.40;58.90
24430;DHT22;12613;47.408;8.412;2023-09-19T15:09:29;28.70;56.70
24430;DHT22;12613;47.408;8.412;2023-09-19T15:11:59;28.90;56.90
24430;DHT22;12613;47.408;8.412;2023-09-19T15:14:26;29.00;55.60
24430;DHT22;12613;47.408;8.412;2023-09-19T15:16:53;29.20;54.00
24430;DHT22;12613;47.408;8.412;2023-09-19T15:19:21;29.10;53.20
24430;DHT22;12613;47.408;8.412;2023-09-19T15:21:49;29.00;52.70
24430;DHT22;12613;47.408;8.412;2023-09-19T15:24:17;29.10;53.60
24430;DHT22;12613;47.408;8.412;2023-09-19T15:26:44;29.30;55.50
24430;DHT22;12613;47.408;8.412;2023-09-19T15:29:13;29.80;54.00
24430;DHT22;12613;47.408;8.412;2023-09-19T15:31:43;30.30;56.70
24430;DHT22;12613;47.408;8.412;2023-09-19T15:34:12;31.00;56.30
24430;DHT22;12613;47.408;8.412;2023-09-19T15:36:43;31.90;56.00
24430;DHT22;12613;47.408;8.412;2023-09-19T15:39:11;32.50;50.70
24430;DHT22;12613;47.408;8.412;2023-09-19T15:41:44;32.90;51.90
24430;DHT22;12613;47.408;8.412;2023-09-19T15:44:18;33.70;51.50
24430;DHT22;12613;47.408;8.412;2023-09-19T15:46:47;34.10;49.70
24430;DHT22;12613;47.408;8.412;2023-09-19T15:49:15;34.40;45.40
24430;DHT22;12613;47.408;8.412;2023-09-19T15:51:43;34.60;45.40
24430;DHT22;12613;47.408;8.412;2023-09-19T15:54:15;34.40;41.80
24430;DHT22;12613;47.408;8.412;2023-09-19T15:56:44;34.20;43.60
24430;DHT22;12613;47.408;8.412;2023-09-19T15:59:11;34.40;44.30
24430;DHT22;12613;47.408;8.412;2023-09-19T16:01:45;34.70;44.20
24430;DHT22;12613;47.408;8.412;2023-09-19T16:04:14;35.10;43.70
24430;DHT22;12613;47.408;8.412;2023-09-19T16:06:43;35.30;43.10
24430;DHT22;12613;47.408;8.412;2023-09-19T16:09:11;35.60;41.80
24430;DHT22;12613;47.408;8.412;2023-09-19T16:11:41;35.60;40.50
24430;DHT22;12613;47.408;8.412;2023-09-19T16:14:26;35.60;38.70
24430;DHT22;12613;47.408;8.412;2023-09-19T16:16:58;35.20;37.70
24430;DHT22;12613;47.408;8.412;2023-09-19T16:19:26;34.90;36.20
24430;DHT22;12613;47.408;8.412;2023-09-19T16:21:55;34.40;38.90
24430;DHT22;12613;47.408;8.412;2023-09-19T16:24:24;34.20;37.90
24430;DHT22;12613;47.408;8.412;2023-09-19T16:26:53;34.00;37.30
24430;DHT22;12613;47.408;8.412;2023-09-19T16:29:21;33.60;37.90
24430;DHT22;12613;47.408;8.412;2023-09-19T16:31:54;33.50;39.90
24430;DHT22;12613;47.408;8.412;2023-09-19T16:34:22;33.80;40.10
24430;DHT22;12613;47.408;8.412;2023-09-19T16:36:49;34.20;41.50
24430;DHT22;12613;47.408;8.412;2023-09-19T16:39:18;34.50;39.30
24430;DHT22;12613;47.408;8.412;2023-09-19T16:41:48;34.70;39.40
24430;DHT22;12613;47.408;8.412;2023-09-19T16:44:22;34.80;37.70
24430;DHT22;12613;47.408;8.412;2023-09-19T16:46:51;34.50;36.50